Terminal Aerodrome Forecast
Issued by NWS

Home | Current Version | Previous Version | Text Only | Print | Product List | Glossary On
Versions: 1 2 3 4 5 6 7 8 9 10 11 12 13 14
000
FTUS46 KMTR 212300
TAFOAK
TAF
KOAK 212335Z 2200/2306 29012KT P6SM FEW015 SCT220
     FM220400 29004KT P6SM FEW250
     FM221400 VRB03KT P6SM BKN015
     FM221800 22004KT P6SM FEW015
     FM222000 28010KT P6SM SCT250
     FM230500 28006KT P6SM BKN250=

USA.gov is the U.S. government's official web portal to all federal, state and local government web resources and services.